Waterville, Vermont
Current Conditions -  °F | °C
As of 10:54 AM on Monday 26 Jan 2015 (Local Time) from KMVL Reporting Station
Clear Clear  
Wind Chill: -3°   Ceiling: Unl
Heat Index: -3°   Visibility: 10mi
Dew Point: -7°   Wind: 0mph
Humidity: 82%   Direction: NA
Pressure: 30.17"   Gusts: NA
Location:  44.69°N, 72.77°W
Report Text: KMVL 261554Z AUTO 00000KT 10SM CLR M19/M22 A3017 RMK AO2 SLP239 T11941217 TSNO
Loading
Personal Weather Stations






























Interactive Weather Map New forecast layout! Learn more

10-Day Weather Forecast

Advertisements
Track Severe Weather on mobile